sensor_id;sensor_type;location;lat;lon;timestamp;P1;durP1;ratioP1;P2;durP2;ratioP2
74904;SDS011;63465;50.862;6.220;2023-04-06T00:00:01;13.23;;;8.00;;
74904;SDS011;63465;50.862;6.220;2023-04-06T00:02:34;18.37;;;9.00;;
74904;SDS011;63465;50.862;6.220;2023-04-06T00:05:01;15.20;;;8.47;;
74904;SDS011;63465;50.862;6.220;2023-04-06T00:07:28;15.03;;;8.40;;
74904;SDS011;63465;50.862;6.220;2023-04-06T00:09:55;16.87;;;8.33;;
74904;SDS011;63465;50.862;6.220;2023-04-06T00:12:22;15.63;;;9.33;;
74904;SDS011;63465;50.862;6.220;2023-04-06T00:14:49;14.57;;;8.00;;
74904;SDS011;63465;50.862;6.220;2023-04-06T00:17:17;14.97;;;8.40;;
74904;SDS011;63465;50.862;6.220;2023-04-06T00:19:44;11.90;;;7.83;;
74904;SDS011;63465;50.862;6.220;2023-04-06T00:22:10;15.23;;;7.93;;
74904;SDS011;63465;50.862;6.220;2023-04-06T00:24:37;16.73;;;9.20;;
74904;SDS011;63465;50.862;6.220;2023-04-06T00:27:04;18.77;;;8.60;;
74904;SDS011;63465;50.862;6.220;2023-04-06T00:29:31;15.10;;;8.53;;
74904;SDS011;63465;50.862;6.220;2023-04-06T00:31:57;19.50;;;8.80;;
74904;SDS011;63465;50.862;6.220;2023-04-06T00:34:25;20.93;;;9.90;;
74904;SDS011;63465;50.862;6.220;2023-04-06T00:36:52;15.20;;;8.80;;
74904;SDS011;63465;50.862;6.220;2023-04-06T00:39:19;17.00;;;9.23;;
74904;SDS011;63465;50.862;6.220;2023-04-06T00:41:47;15.83;;;8.40;;
74904;SDS011;63465;50.862;6.220;2023-04-06T00:44:17;13.23;;;8.43;;
74904;SDS011;63465;50.862;6.220;2023-04-06T00:46:44;16.37;;;8.67;;
74904;SDS011;63465;50.862;6.220;2023-04-06T00:49:11;13.50;;;8.90;;
74904;SDS011;63465;50.862;6.220;2023-04-06T00:51:39;17.20;;;9.17;;
74904;SDS011;63465;50.862;6.220;2023-04-06T00:56:54;21.17;;;8.70;;
74904;SDS011;63465;50.862;6.220;2023-04-06T00:59:22;14.87;;;8.00;;
74904;SDS011;63465;50.862;6.220;2023-04-06T01:01:51;13.07;;;7.30;;
74904;SDS011;63465;50.862;6.220;2023-04-06T01:04:31;14.20;;;9.43;;
74904;SDS011;63465;50.862;6.220;2023-04-06T01:07:01;15.53;;;8.63;;
74904;SDS011;63465;50.862;6.220;2023-04-06T01:09:36;15.10;;;8.70;;
74904;SDS011;63465;50.862;6.220;2023-04-06T01:12:13;17.93;;;8.10;;
74904;SDS011;63465;50.862;6.220;2023-04-06T01:14:40;20.33;;;8.50;;
74904;SDS011;63465;50.862;6.220;2023-04-06T01:17:07;18.40;;;8.03;;
74904;SDS011;63465;50.862;6.220;2023-04-06T01:19:35;16.93;;;8.90;;
74904;SDS011;63465;50.862;6.220;2023-04-06T01:22:04;15.73;;;8.33;;
74904;SDS011;63465;50.862;6.220;2023-04-06T01:24:32;14.60;;;8.17;;
74904;SDS011;63465;50.862;6.220;2023-04-06T01:27:25;17.77;;;7.97;;
74904;SDS011;63465;50.862;6.220;2023-04-06T01:30:11;14.40;;;7.30;;
74904;SDS011;63465;50.862;6.220;2023-04-06T01:32:58;15.93;;;7.90;;
74904;SDS011;63465;50.862;6.220;2023-04-06T01:35:36;10.57;;;7.30;;
74904;SDS011;63465;50.862;6.220;2023-04-06T01:38:13;15.33;;;8.23;;
74904;SDS011;63465;50.862;6.220;2023-04-06T01:40:42;11.30;;;6.70;;
74904;SDS011;63465;50.862;6.220;2023-04-06T01:43:09;18.80;;;9.67;;
74904;SDS011;63465;50.862;6.220;2023-04-06T01:45:48;12.00;;;8.20;;
74904;SDS011;63465;50.862;6.220;2023-04-06T01:48:19;13.83;;;8.67;;
74904;SDS011;63465;50.862;6.220;2023-04-06T01:50:46;12.90;;;7.63;;
74904;SDS011;63465;50.862;6.220;2023-04-06T01:53:19;30.17;;;8.70;;
74904;SDS011;63465;50.862;6.220;2023-04-06T01:55:47;15.13;;;7.07;;
74904;SDS011;63465;50.862;6.220;2023-04-06T01:58:31;14.57;;;7.00;;
74904;SDS011;63465;50.862;6.220;2023-04-06T02:00:59;11.97;;;7.47;;
74904;SDS011;63465;50.862;6.220;2023-04-06T02:03:31;17.40;;;8.40;;
74904;SDS011;63465;50.862;6.220;2023-04-06T02:06:04;23.40;;;8.50;;
74904;SDS011;63465;50.862;6.220;2023-04-06T02:08:36;15.73;;;8.43;;
74904;SDS011;63465;50.862;6.220;2023-04-06T02:11:04;15.00;;;9.10;;
74904;SDS011;63465;50.862;6.220;2023-04-06T02:13:40;13.50;;;8.00;;
74904;SDS011;63465;50.862;6.220;2023-04-06T02:16:08;15.30;;;8.60;;
74904;SDS011;63465;50.862;6.220;2023-04-06T02:18:35;15.43;;;7.90;;
74904;SDS011;63465;50.862;6.220;2023-04-06T02:21:03;14.53;;;8.30;;
74904;SDS011;63465;50.862;6.220;2023-04-06T02:23:30;17.30;;;8.53;;
74904;SDS011;63465;50.862;6.220;2023-04-06T02:25:57;11.07;;;7.07;;
74904;SDS011;63465;50.862;6.220;2023-04-06T02:28:25;13.03;;;8.10;;
74904;SDS011;63465;50.862;6.220;2023-04-06T02:30:52;13.93;;;7.33;;
74904;SDS011;63465;50.862;6.220;2023-04-06T02:33:23;16.33;;;7.40;;
74904;SDS011;63465;50.862;6.220;2023-04-06T02:35:49;14.27;;;8.00;;
74904;SDS011;63465;50.862;6.220;2023-04-06T02:38:16;13.23;;;7.40;;
74904;SDS011;63465;50.862;6.220;2023-04-06T02:40:44;13.70;;;7.60;;
74904;SDS011;63465;50.862;6.220;2023-04-06T02:43:17;11.30;;;6.87;;
74904;SDS011;63465;50.862;6.220;2023-04-06T02:45:46;14.73;;;7.77;;
74904;SDS011;63465;50.862;6.220;2023-04-06T02:48:13;9.70;;;6.80;;
74904;SDS011;63465;50.862;6.220;2023-04-06T02:50:40;12.90;;;8.00;;
74904;SDS011;63465;50.862;6.220;2023-04-06T02:53:07;17.10;;;7.73;;
74904;SDS011;63465;50.862;6.220;2023-04-06T02:55:36;12.80;;;7.77;;
74904;SDS011;63465;50.862;6.220;2023-04-06T02:58:03;16.47;;;8.57;;
74904;SDS011;63465;50.862;6.220;2023-04-06T03:00:37;13.57;;;8.10;;
74904;SDS011;63465;50.862;6.220;2023-04-06T03:03:05;14.33;;;8.10;;
74904;SDS011;63465;50.862;6.220;2023-04-06T03:05:32;15.43;;;7.57;;
74904;SDS011;63465;50.862;6.220;2023-04-06T03:08:00;14.70;;;7.67;;
74904;SDS011;63465;50.862;6.220;2023-04-06T03:10:45;12.10;;;7.73;;
74904;SDS011;63465;50.862;6.220;2023-04-06T03:13:13;16.37;;;7.50;;
74904;SDS011;63465;50.862;6.220;2023-04-06T03:15:44;14.03;;;7.73;;
74904;SDS011;63465;50.862;6.220;2023-04-06T03:18:17;11.83;;;7.23;;
74904;SDS011;63465;50.862;6.220;2023-04-06T03:20:48;10.87;;;6.60;;
74904;SDS011;63465;50.862;6.220;2023-04-06T03:23:16;16.60;;;7.77;;
74904;SDS011;63465;50.862;6.220;2023-04-06T03:25:46;10.27;;;6.70;;
74904;SDS011;63465;50.862;6.220;2023-04-06T03:28:16;10.20;;;6.13;;
74904;SDS011;63465;50.862;6.220;2023-04-06T03:30:56;16.70;;;7.17;;
74904;SDS011;63465;50.862;6.220;2023-04-06T03:33:44;9.93;;;6.30;;
74904;SDS011;63465;50.862;6.220;2023-04-06T03:36:18;13.27;;;7.33;;
74904;SDS011;63465;50.862;6.220;2023-04-06T03:38:45;19.03;;;7.80;;
74904;SDS011;63465;50.862;6.220;2023-04-06T03:41:13;9.83;;;6.10;;
74904;SDS011;63465;50.862;6.220;2023-04-06T03:43:45;12.53;;;6.60;;
74904;SDS011;63465;50.862;6.220;2023-04-06T03:46:12;9.70;;;5.83;;
74904;SDS011;63465;50.862;6.220;2023-04-06T03:48:39;16.70;;;7.13;;
74904;SDS011;63465;50.862;6.220;2023-04-06T03:51:07;16.43;;;6.77;;
74904;SDS011;63465;50.862;6.220;2023-04-06T03:53:34;13.43;;;7.27;;
74904;SDS011;63465;50.862;6.220;2023-04-06T03:56:02;15.57;;;5.97;;
74904;SDS011;63465;50.862;6.220;2023-04-06T03:58:29;10.90;;;5.97;;
74904;SDS011;63465;50.862;6.220;2023-04-06T04:00:56;11.10;;;6.63;;
74904;SDS011;63465;50.862;6.220;2023-04-06T04:03:22;13.30;;;7.27;;
74904;SDS011;63465;50.862;6.220;2023-04-06T04:05:52;16.60;;;7.27;;
74904;SDS011;63465;50.862;6.220;2023-04-06T04:08:20;15.83;;;7.30;;
74904;SDS011;63465;50.862;6.220;2023-04-06T04:10:47;9.50;;;6.00;;
74904;SDS011;63465;50.862;6.220;2023-04-06T04:13:14;9.93;;;6.57;;
74904;SDS011;63465;50.862;6.220;2023-04-06T04:15:44;14.23;;;5.90;;
74904;SDS011;63465;50.862;6.220;2023-04-06T04:18:12;10.10;;;6.53;;
74904;SDS011;63465;50.862;6.220;2023-04-06T04:20:39;10.77;;;6.47;;
74904;SDS011;63465;50.862;6.220;2023-04-06T04:23:08;16.50;;;6.80;;
74904;SDS011;63465;50.862;6.220;2023-04-06T04:25:36;16.80;;;6.73;;
74904;SDS011;63465;50.862;6.220;2023-04-06T04:28:03;11.00;;;5.97;;
74904;SDS011;63465;50.862;6.220;2023-04-06T04:30:30;13.93;;;6.90;;
74904;SDS011;63465;50.862;6.220;2023-04-06T04:32:57;10.23;;;6.60;;
74904;SDS011;63465;50.862;6.220;2023-04-06T04:35:24;13.80;;;6.87;;
74904;SDS011;63465;50.862;6.220;2023-04-06T04:37:51;13.63;;;6.93;;
74904;SDS011;63465;50.862;6.220;2023-04-06T04:40:18;9.07;;;6.17;;
74904;SDS011;63465;50.862;6.220;2023-04-06T04:42:53;10.17;;;7.00;;
74904;SDS011;63465;50.862;6.220;2023-04-06T04:45:30;8.30;;;5.70;;
74904;SDS011;63465;50.862;6.220;2023-04-06T04:48:03;12.43;;;7.00;;
74904;SDS011;63465;50.862;6.220;2023-04-06T04:50:43;11.80;;;6.53;;
74904;SDS011;63465;50.862;6.220;2023-04-06T04:53:11;9.57;;;6.43;;
74904;SDS011;63465;50.862;6.220;2023-04-06T04:55:39;13.27;;;7.40;;
74904;SDS011;63465;50.862;6.220;2023-04-06T04:58:07;13.53;;;6.70;;
74904;SDS011;63465;50.862;6.220;2023-04-06T05:00:57;12.23;;;6.53;;
74904;SDS011;63465;50.862;6.220;2023-04-06T05:03:24;12.03;;;6.70;;
74904;SDS011;63465;50.862;6.220;2023-04-06T05:05:59;14.43;;;7.10;;
74904;SDS011;63465;50.862;6.220;2023-04-06T05:08:29;11.20;;;6.60;;
74904;SDS011;63465;50.862;6.220;2023-04-06T05:10:56;15.97;;;7.20;;
74904;SDS011;63465;50.862;6.220;2023-04-06T05:13:25;13.83;;;7.47;;
74904;SDS011;63465;50.862;6.220;2023-04-06T05:15:53;11.27;;;6.33;;
74904;SDS011;63465;50.862;6.220;2023-04-06T05:18:27;14.70;;;7.43;;
74904;SDS011;63465;50.862;6.220;2023-04-06T05:20:55;16.40;;;7.03;;
74904;SDS011;63465;50.862;6.220;2023-04-06T05:23:30;17.20;;;7.53;;
74904;SDS011;63465;50.862;6.220;2023-04-06T05:25:59;16.13;;;7.90;;
74904;SDS011;63465;50.862;6.220;2023-04-06T05:28:27;12.87;;;7.33;;
74904;SDS011;63465;50.862;6.220;2023-04-06T05:30:55;12.20;;;7.47;;
74904;SDS011;63465;50.862;6.220;2023-04-06T05:33:22;12.50;;;7.30;;
74904;SDS011;63465;50.862;6.220;2023-04-06T05:35:59;14.60;;;7.47;;
74904;SDS011;63465;50.862;6.220;2023-04-06T05:38:27;12.40;;;7.60;;
74904;SDS011;63465;50.862;6.220;2023-04-06T05:40:57;12.87;;;7.67;;
74904;SDS011;63465;50.862;6.220;2023-04-06T05:43:29;17.77;;;8.00;;
74904;SDS011;63465;50.862;6.220;2023-04-06T05:45:58;12.60;;;7.20;;
74904;SDS011;63465;50.862;6.220;2023-04-06T05:48:25;14.07;;;6.87;;
74904;SDS011;63465;50.862;6.220;2023-04-06T05:50:52;12.13;;;7.70;;
74904;SDS011;63465;50.862;6.220;2023-04-06T05:53:25;16.80;;;7.80;;
74904;SDS011;63465;50.862;6.220;2023-04-06T05:55:55;12.10;;;7.53;;
74904;SDS011;63465;50.862;6.220;2023-04-06T05:58:22;15.80;;;8.57;;
74904;SDS011;63465;50.862;6.220;2023-04-06T06:00:57;18.53;;;8.00;;
74904;SDS011;63465;50.862;6.220;2023-04-06T06:03:24;14.30;;;8.23;;
74904;SDS011;63465;50.862;6.220;2023-04-06T06:05:58;18.10;;;8.60;;
74904;SDS011;63465;50.862;6.220;2023-04-06T06:08:30;12.37;;;7.50;;
74904;SDS011;63465;50.862;6.220;2023-04-06T06:10:59;13.77;;;7.83;;
74904;SDS011;63465;50.862;6.220;2023-04-06T06:13:26;14.50;;;8.07;;
74904;SDS011;63465;50.862;6.220;2023-04-06T06:15:54;20.73;;;7.70;;
74904;SDS011;63465;50.862;6.220;2023-04-06T06:18:23;17.90;;;8.20;;
74904;SDS011;63465;50.862;6.220;2023-04-06T06:20:52;20.23;;;7.70;;
74904;SDS011;63465;50.862;6.220;2023-04-06T06:23:19;15.93;;;8.40;;
74904;SDS011;63465;50.862;6.220;2023-04-06T06:25:46;28.80;;;10.13;;
74904;SDS011;63465;50.862;6.220;2023-04-06T06:28:13;32.00;;;12.03;;
74904;SDS011;63465;50.862;6.220;2023-04-06T06:30:40;38.10;;;13.53;;
74904;SDS011;63465;50.862;6.220;2023-04-06T06:33:07;34.13;;;14.33;;
74904;SDS011;63465;50.862;6.220;2023-04-06T06:35:35;18.03;;;7.83;;
74904;SDS011;63465;50.862;6.220;2023-04-06T06:38:03;12.43;;;7.53;;
74904;SDS011;63465;50.862;6.220;2023-04-06T06:40:31;19.67;;;7.23;;
74904;SDS011;63465;50.862;6.220;2023-04-06T06:42:58;13.80;;;7.67;;
74904;SDS011;63465;50.862;6.220;2023-04-06T06:45:43;10.83;;;6.60;;
74904;SDS011;63465;50.862;6.220;2023-04-06T06:48:12;11.70;;;6.40;;
74904;SDS011;63465;50.862;6.220;2023-04-06T06:50:40;11.50;;;6.73;;
74904;SDS011;63465;50.862;6.220;2023-04-06T06:53:07;10.20;;;6.40;;
74904;SDS011;63465;50.862;6.220;2023-04-06T06:55:34;15.63;;;8.40;;
74904;SDS011;63465;50.862;6.220;2023-04-06T06:58:01;21.17;;;8.23;;
74904;SDS011;63465;50.862;6.220;2023-04-06T07:00:28;10.60;;;6.70;;
74904;SDS011;63465;50.862;6.220;2023-04-06T07:02:54;10.93;;;6.87;;
74904;SDS011;63465;50.862;6.220;2023-04-06T07:05:22;16.73;;;7.87;;
74904;SDS011;63465;50.862;6.220;2023-04-06T07:07:50;11.97;;;7.00;;
74904;SDS011;63465;50.862;6.220;2023-04-06T07:10:17;12.97;;;7.67;;
74904;SDS011;63465;50.862;6.220;2023-04-06T07:12:43;12.90;;;7.60;;
74904;SDS011;63465;50.862;6.220;2023-04-06T07:15:11;12.60;;;7.50;;
74904;SDS011;63465;50.862;6.220;2023-04-06T07:17:38;12.70;;;6.53;;
74904;SDS011;63465;50.862;6.220;2023-04-06T07:20:06;18.37;;;6.50;;
74904;SDS011;63465;50.862;6.220;2023-04-06T07:22:34;13.13;;;6.93;;
74904;SDS011;63465;50.862;6.220;2023-04-06T07:25:03;12.83;;;8.43;;
74904;SDS011;63465;50.862;6.220;2023-04-06T07:27:30;14.17;;;6.77;;
74904;SDS011;63465;50.862;6.220;2023-04-06T07:29:58;13.70;;;7.13;;
74904;SDS011;63465;50.862;6.220;2023-04-06T07:32:25;15.83;;;7.60;;
74904;SDS011;63465;50.862;6.220;2023-04-06T07:34:52;15.07;;;6.57;;
74904;SDS011;63465;50.862;6.220;2023-04-06T07:37:19;13.70;;;7.50;;
74904;SDS011;63465;50.862;6.220;2023-04-06T07:39:47;15.83;;;7.10;;
74904;SDS011;63465;50.862;6.220;2023-04-06T07:42:15;16.63;;;8.03;;
74904;SDS011;63465;50.862;6.220;2023-04-06T07:44:43;12.90;;;7.40;;
74904;SDS011;63465;50.862;6.220;2023-04-06T07:47:10;13.13;;;7.20;;
74904;SDS011;63465;50.862;6.220;2023-04-06T07:49:37;14.67;;;7.50;;
74904;SDS011;63465;50.862;6.220;2023-04-06T07:52:04;12.40;;;6.97;;
74904;SDS011;63465;50.862;6.220;2023-04-06T07:54:32;20.03;;;7.40;;
74904;SDS011;63465;50.862;6.220;2023-04-06T07:56:59;14.97;;;7.63;;
74904;SDS011;63465;50.862;6.220;2023-04-06T07:59:27;22.40;;;7.50;;
74904;SDS011;63465;50.862;6.220;2023-04-06T08:01:54;12.87;;;7.03;;
74904;SDS011;63465;50.862;6.220;2023-04-06T08:04:20;18.07;;;8.30;;
74904;SDS011;63465;50.862;6.220;2023-04-06T08:06:47;19.93;;;8.70;;
74904;SDS011;63465;50.862;6.220;2023-04-06T08:09:14;19.60;;;7.73;;
74904;SDS011;63465;50.862;6.220;2023-04-06T08:11:41;14.43;;;7.83;;
74904;SDS011;63465;50.862;6.220;2023-04-06T08:14:07;11.67;;;6.60;;
74904;SDS011;63465;50.862;6.220;2023-04-06T08:16:35;17.23;;;8.67;;
74904;SDS011;63465;50.862;6.220;2023-04-06T08:19:02;14.43;;;7.03;;
74904;SDS011;63465;50.862;6.220;2023-04-06T08:21:29;21.13;;;7.53;;
74904;SDS011;63465;50.862;6.220;2023-04-06T08:23:56;15.83;;;7.47;;
74904;SDS011;63465;50.862;6.220;2023-04-06T08:26:23;17.07;;;7.83;;
74904;SDS011;63465;50.862;6.220;2023-04-06T08:28:50;12.90;;;7.50;;
74904;SDS011;63465;50.862;6.220;2023-04-06T08:31:17;11.73;;;6.90;;
74904;SDS011;63465;50.862;6.220;2023-04-06T08:33:45;12.23;;;7.00;;
74904;SDS011;63465;50.862;6.220;2023-04-06T08:36:12;14.03;;;7.03;;
74904;SDS011;63465;50.862;6.220;2023-04-06T08:38:40;10.97;;;6.57;;
74904;SDS011;63465;50.862;6.220;2023-04-06T08:41:08;12.70;;;6.90;;
74904;SDS011;63465;50.862;6.220;2023-04-06T08:43:37;17.20;;;7.53;;
74904;SDS011;63465;50.862;6.220;2023-04-06T08:46:09;16.10;;;7.17;;
74904;SDS011;63465;50.862;6.220;2023-04-06T08:48:36;15.83;;;6.57;;
74904;SDS011;63465;50.862;6.220;2023-04-06T08:51:06;10.80;;;6.47;;
74904;SDS011;63465;50.862;6.220;2023-04-06T08:53:34;14.17;;;7.70;;
74904;SDS011;63465;50.862;6.220;2023-04-06T08:56:01;15.10;;;8.03;;
74904;SDS011;63465;50.862;6.220;2023-04-06T08:58:32;14.97;;;7.23;;
74904;SDS011;63465;50.862;6.220;2023-04-06T09:01:02;12.67;;;6.87;;
74904;SDS011;63465;50.862;6.220;2023-04-06T09:03:33;13.50;;;7.17;;
74904;SDS011;63465;50.862;6.220;2023-04-06T09:06:03;20.03;;;8.03;;
74904;SDS011;63465;50.862;6.220;2023-04-06T09:08:32;15.10;;;7.33;;
74904;SDS011;63465;50.862;6.220;2023-04-06T09:10:59;14.40;;;7.90;;
74904;SDS011;63465;50.862;6.220;2023-04-06T09:13:27;15.00;;;7.30;;
74904;SDS011;63465;50.862;6.220;2023-04-06T09:16:00;14.10;;;7.17;;
74904;SDS011;63465;50.862;6.220;2023-04-06T09:18:28;16.37;;;7.60;;
74904;SDS011;63465;50.862;6.220;2023-04-06T09:20:59;14.13;;;7.20;;
74904;SDS011;63465;50.862;6.220;2023-04-06T09:23:26;15.80;;;7.47;;
74904;SDS011;63465;50.862;6.220;2023-04-06T09:26:05;14.10;;;7.40;;
74904;SDS011;63465;50.862;6.220;2023-04-06T09:28:45;15.37;;;7.60;;
74904;SDS011;63465;50.862;6.220;2023-04-06T09:31:13;18.33;;;8.03;;
74904;SDS011;63465;50.862;6.220;2023-04-06T09:33:40;12.97;;;7.60;;
74904;SDS011;63465;50.862;6.220;2023-04-06T09:36:08;20.73;;;8.07;;
74904;SDS011;63465;50.862;6.220;2023-04-06T09:38:39;18.60;;;8.20;;
74904;SDS011;63465;50.862;6.220;2023-04-06T09:41:22;15.60;;;8.37;;
74904;SDS011;63465;50.862;6.220;2023-04-06T09:43:49;20.10;;;9.50;;
74904;SDS011;63465;50.862;6.220;2023-04-06T09:46:17;13.53;;;7.40;;
74904;SDS011;63465;50.862;6.220;2023-04-06T09:48:46;23.70;;;9.20;;
74904;SDS011;63465;50.862;6.220;2023-04-06T09:51:13;22.03;;;9.43;;
74904;SDS011;63465;50.862;6.220;2023-04-06T09:53:42;18.93;;;8.67;;
74904;SDS011;63465;50.862;6.220;2023-04-06T09:56:16;17.77;;;8.83;;
74904;SDS011;63465;50.862;6.220;2023-04-06T09:58:50;17.77;;;8.27;;
74904;SDS011;63465;50.862;6.220;2023-04-06T10:01:22;16.50;;;8.97;;
74904;SDS011;63465;50.862;6.220;2023-04-06T10:03:55;17.63;;;8.97;;
74904;SDS011;63465;50.862;6.220;2023-04-06T10:06:29;19.03;;;7.73;;
74904;SDS011;63465;50.862;6.220;2023-04-06T10:09:01;16.63;;;8.93;;
74904;SDS011;63465;50.862;6.220;2023-04-06T10:11:30;18.00;;;9.33;;
74904;SDS011;63465;50.862;6.220;2023-04-06T10:13:58;23.67;;;9.60;;
74904;SDS011;63465;50.862;6.220;2023-04-06T10:16:27;17.67;;;9.00;;
74904;SDS011;63465;50.862;6.220;2023-04-06T10:18:56;18.53;;;9.13;;
74904;SDS011;63465;50.862;6.220;2023-04-06T10:21:26;19.47;;;9.27;;
74904;SDS011;63465;50.862;6.220;2023-04-06T10:23:58;16.97;;;6.70;;
74904;SDS011;63465;50.862;6.220;2023-04-06T10:26:26;13.17;;;6.93;;
74904;SDS011;63465;50.862;6.220;2023-04-06T10:28:52;13.23;;;7.00;;
74904;SDS011;63465;50.862;6.220;2023-04-06T10:31:27;12.17;;;6.83;;
74904;SDS011;63465;50.862;6.220;2023-04-06T10:33:54;12.60;;;8.23;;
74904;SDS011;63465;50.862;6.220;2023-04-06T10:36:22;13.00;;;7.63;;
74904;SDS011;63465;50.862;6.220;2023-04-06T10:38:55;14.70;;;8.03;;
74904;SDS011;63465;50.862;6.220;2023-04-06T10:41:23;20.73;;;7.47;;
74904;SDS011;63465;50.862;6.220;2023-04-06T10:43:54;17.10;;;7.37;;
74904;SDS011;63465;50.862;6.220;2023-04-06T10:46:24;13.30;;;6.67;;
74904;SDS011;63465;50.862;6.220;2023-04-06T10:48:53;12.10;;;6.10;;
74904;SDS011;63465;50.862;6.220;2023-04-06T10:51:23;14.47;;;6.37;;
74904;SDS011;63465;50.862;6.220;2023-04-06T10:53:52;12.63;;;7.17;;
74904;SDS011;63465;50.862;6.220;2023-04-06T10:56:21;13.17;;;6.87;;
74904;SDS011;63465;50.862;6.220;2023-04-06T10:58:51;10.83;;;6.60;;
74904;SDS011;63465;50.862;6.220;2023-04-06T11:01:21;10.97;;;6.63;;
74904;SDS011;63465;50.862;6.220;2023-04-06T11:03:49;12.10;;;6.67;;
74904;SDS011;63465;50.862;6.220;2023-04-06T11:06:19;9.40;;;6.43;;
74904;SDS011;63465;50.862;6.220;2023-04-06T11:08:46;20.40;;;6.90;;
74904;SDS011;63465;50.862;6.220;2023-04-06T11:11:14;9.67;;;6.37;;
74904;SDS011;63465;50.862;6.220;2023-04-06T11:13:44;9.80;;;5.70;;
74904;SDS011;63465;50.862;6.220;2023-04-06T11:16:12;12.33;;;4.77;;
74904;SDS011;63465;50.862;6.220;2023-04-06T11:18:47;5.83;;;5.10;;
74904;SDS011;63465;50.862;6.220;2023-04-06T11:21:15;7.13;;;5.00;;
74904;SDS011;63465;50.862;6.220;2023-04-06T11:23:43;11.83;;;6.63;;
74904;SDS011;63465;50.862;6.220;2023-04-06T11:26:10;9.30;;;6.30;;
74904;SDS011;63465;50.862;6.220;2023-04-06T11:28:38;11.43;;;6.27;;
74904;SDS011;63465;50.862;6.220;2023-04-06T11:31:05;11.47;;;6.47;;
74904;SDS011;63465;50.862;6.220;2023-04-06T11:33:35;14.20;;;7.77;;
74904;SDS011;63465;50.862;6.220;2023-04-06T11:36:03;12.13;;;6.83;;
74904;SDS011;63465;50.862;6.220;2023-04-06T11:38:30;15.43;;;6.40;;
74904;SDS011;63465;50.862;6.220;2023-04-06T11:40:58;12.30;;;7.03;;
74904;SDS011;63465;50.862;6.220;2023-04-06T11:43:28;10.10;;;6.87;;
74904;SDS011;63465;50.862;6.220;2023-04-06T11:46:02;13.30;;;7.50;;
74904;SDS011;63465;50.862;6.220;2023-04-06T11:48:29;13.47;;;7.53;;
74904;SDS011;63465;50.862;6.220;2023-04-06T11:50:57;11.30;;;7.43;;
74904;SDS011;63465;50.862;6.220;2023-04-06T11:53:26;9.93;;;6.90;;
74904;SDS011;63465;50.862;6.220;2023-04-06T11:55:53;10.67;;;6.53;;
74904;SDS011;63465;50.862;6.220;2023-04-06T11:58:21;9.70;;;5.87;;
74904;SDS011;63465;50.862;6.220;2023-04-06T12:00:48;8.73;;;5.70;;
74904;SDS011;63465;50.862;6.220;2023-04-06T12:03:15;8.73;;;4.93;;
74904;SDS011;63465;50.862;6.220;2023-04-06T12:05:41;10.20;;;5.10;;
74904;SDS011;63465;50.862;6.220;2023-04-06T12:08:09;7.00;;;4.70;;
74904;SDS011;63465;50.862;6.220;2023-04-06T12:10:36;9.90;;;5.53;;
74904;SDS011;63465;50.862;6.220;2023-04-06T12:13:03;6.70;;;4.83;;
74904;SDS011;63465;50.862;6.220;2023-04-06T12:15:31;12.10;;;6.07;;
74904;SDS011;63465;50.862;6.220;2023-04-06T12:17:58;13.40;;;6.33;;
74904;SDS011;63465;50.862;6.220;2023-04-06T12:20:25;12.80;;;6.70;;
74904;SDS011;63465;50.862;6.220;2023-04-06T12:22:52;9.90;;;6.20;;
74904;SDS011;63465;50.862;6.220;2023-04-06T12:25:19;13.83;;;7.30;;
74904;SDS011;63465;50.862;6.220;2023-04-06T12:27:46;17.20;;;5.47;;
74904;SDS011;63465;50.862;6.220;2023-04-06T12:30:13;11.53;;;6.10;;
74904;SDS011;63465;50.862;6.220;2023-04-06T12:32:42;11.23;;;6.07;;
74904;SDS011;63465;50.862;6.220;2023-04-06T12:35:09;11.60;;;6.77;;
74904;SDS011;63465;50.862;6.220;2023-04-06T12:37:37;10.37;;;6.30;;
74904;SDS011;63465;50.862;6.220;2023-04-06T12:40:04;12.10;;;6.70;;
74904;SDS011;63465;50.862;6.220;2023-04-06T12:42:32;21.60;;;7.17;;
74904;SDS011;63465;50.862;6.220;2023-04-06T12:44:59;14.00;;;7.57;;
74904;SDS011;63465;50.862;6.220;2023-04-06T12:47:25;12.23;;;7.20;;
74904;SDS011;63465;50.862;6.220;2023-04-06T12:49:54;11.43;;;6.57;;
74904;SDS011;63465;50.862;6.220;2023-04-06T12:52:21;13.20;;;6.73;;
74904;SDS011;63465;50.862;6.220;2023-04-06T12:54:48;11.17;;;6.17;;
74904;SDS011;63465;50.862;6.220;2023-04-06T12:57:16;11.50;;;7.10;;
74904;SDS011;63465;50.862;6.220;2023-04-06T12:59:43;13.90;;;7.90;;
74904;SDS011;63465;50.862;6.220;2023-04-06T13:02:11;10.60;;;6.50;;
74904;SDS011;63465;50.862;6.220;2023-04-06T13:04:38;12.40;;;6.90;;
74904;SDS011;63465;50.862;6.220;2023-04-06T13:07:06;10.63;;;6.73;;
74904;SDS011;63465;50.862;6.220;2023-04-06T13:09:33;10.90;;;7.33;;
74904;SDS011;63465;50.862;6.220;2023-04-06T13:12:00;20.03;;;6.73;;
74904;SDS011;63465;50.862;6.220;2023-04-06T13:14:27;11.53;;;6.80;;
74904;SDS011;63465;50.862;6.220;2023-04-06T13:16:54;15.00;;;8.07;;
74904;SDS011;63465;50.862;6.220;2023-04-06T13:19:20;16.17;;;7.80;;
74904;SDS011;63465;50.862;6.220;2023-04-06T13:21:47;10.10;;;7.07;;
74904;SDS011;63465;50.862;6.220;2023-04-06T13:24:16;17.80;;;8.10;;
74904;SDS011;63465;50.862;6.220;2023-04-06T13:26:42;12.30;;;6.70;;
74904;SDS011;63465;50.862;6.220;2023-04-06T13:29:09;11.53;;;6.70;;
74904;SDS011;63465;50.862;6.220;2023-04-06T13:31:36;9.83;;;6.37;;
74904;SDS011;63465;50.862;6.220;2023-04-06T13:34:03;13.00;;;5.90;;
74904;SDS011;63465;50.862;6.220;2023-04-06T13:36:30;9.50;;;5.70;;
74904;SDS011;63465;50.862;6.220;2023-04-06T13:38:57;11.37;;;6.07;;
74904;SDS011;63465;50.862;6.220;2023-04-06T13:41:25;8.00;;;5.43;;
74904;SDS011;63465;50.862;6.220;2023-04-06T13:43:52;8.07;;;5.97;;
74904;SDS011;63465;50.862;6.220;2023-04-06T13:46:19;6.13;;;5.00;;
74904;SDS011;63465;50.862;6.220;2023-04-06T13:48:47;12.03;;;5.37;;
74904;SDS011;63465;50.862;6.220;2023-04-06T13:51:14;8.97;;;5.40;;
74904;SDS011;63465;50.862;6.220;2023-04-06T13:53:41;8.20;;;5.33;;
74904;SDS011;63465;50.862;6.220;2023-04-06T13:56:08;8.53;;;5.40;;
74904;SDS011;63465;50.862;6.220;2023-04-06T13:58:36;10.20;;;6.10;;
74904;SDS011;63465;50.862;6.220;2023-04-06T14:01:03;8.13;;;5.73;;
74904;SDS011;63465;50.862;6.220;2023-04-06T14:03:31;7.87;;;5.80;;
74904;SDS011;63465;50.862;6.220;2023-04-06T14:05:58;9.40;;;5.97;;
74904;SDS011;63465;50.862;6.220;2023-04-06T14:08:25;9.47;;;5.37;;
74904;SDS011;63465;50.862;6.220;2023-04-06T14:10:52;9.03;;;5.37;;
74904;SDS011;63465;50.862;6.220;2023-04-06T14:13:19;7.13;;;5.30;;
74904;SDS011;63465;50.862;6.220;2023-04-06T14:15:47;7.43;;;5.43;;
74904;SDS011;63465;50.862;6.220;2023-04-06T14:18:19;6.83;;;4.97;;
74904;SDS011;63465;50.862;6.220;2023-04-06T14:20:52;6.40;;;4.93;;
74904;SDS011;63465;50.862;6.220;2023-04-06T14:23:20;6.80;;;5.20;;
74904;SDS011;63465;50.862;6.220;2023-04-06T14:25:47;7.30;;;5.00;;
74904;SDS011;63465;50.862;6.220;2023-04-06T14:28:13;6.13;;;4.97;;
74904;SDS011;63465;50.862;6.220;2023-04-06T14:30:41;9.87;;;5.30;;
74904;SDS011;63465;50.862;6.220;2023-04-06T14:33:09;6.83;;;5.07;;
74904;SDS011;63465;50.862;6.220;2023-04-06T14:35:37;7.03;;;5.00;;
74904;SDS011;63465;50.862;6.220;2023-04-06T14:38:04;5.70;;;4.70;;
74904;SDS011;63465;50.862;6.220;2023-04-06T14:40:34;7.67;;;5.10;;
74904;SDS011;63465;50.862;6.220;2023-04-06T14:43:01;5.87;;;4.80;;
74904;SDS011;63465;50.862;6.220;2023-04-06T14:45:28;6.50;;;5.17;;
74904;SDS011;63465;50.862;6.220;2023-04-06T14:47:54;8.00;;;5.80;;